createdAt,value
2022-11-13T00:01:13.036Z,3.30
2022-11-13T00:03:41.033Z,3.30
2022-11-13T00:06:10.630Z,3.20
2022-11-13T00:08:38.595Z,3.30
2022-11-13T00:11:08.223Z,3.30
2022-11-13T00:13:36.514Z,3.30
2022-11-13T00:16:08.493Z,3.30
2022-11-13T00:18:37.493Z,3.20
2022-11-13T00:21:10.095Z,3.20
2022-11-13T00:23:38.144Z,3.10
2022-11-13T00:26:08.204Z,3.00
2022-11-13T00:28:36.426Z,3.00
2022-11-13T00:31:07.701Z,3.10
2022-11-13T00:34:05.345Z,3.20
2022-11-13T00:36:26.398Z,3.30
2022-11-13T00:38:55.363Z,3.20
2022-11-13T00:41:23.917Z,3.20
2022-11-13T00:43:52.360Z,3.20
2022-11-13T00:46:21.740Z,3.20
2022-11-13T00:48:49.919Z,3.20
2022-11-13T00:51:19.512Z,3.20
2022-11-13T00:53:47.463Z,3.00
2022-11-13T00:56:15.568Z,3.00
2022-11-13T00:58:43.493Z,3.00
2022-11-13T01:01:14.159Z,3.00
2022-11-13T01:03:43.936Z,3.00
2022-11-13T01:06:15.153Z,3.00
2022-11-13T01:08:43.477Z,3.10
2022-11-13T01:11:13.723Z,3.00
2022-11-13T01:13:42.751Z,3.00
2022-11-13T01:16:12.646Z,2.80
2022-11-13T01:18:41.434Z,2.80
2022-11-13T01:21:12.775Z,2.80
2022-11-13T01:23:41.384Z,2.80
2022-11-13T01:26:11.537Z,2.80
2022-11-13T01:28:40.434Z,2.80
2022-11-13T01:31:09.620Z,2.70
2022-11-13T01:33:38.160Z,2.60
2022-11-13T01:36:09.283Z,2.50
2022-11-13T01:38:38.835Z,2.30
2022-11-13T01:41:07.924Z,2.30
2022-11-13T01:43:39.045Z,2.30
2022-11-13T01:46:11.199Z,2.30
2022-11-13T01:48:42.067Z,2.30
2022-11-13T01:51:14.251Z,2.30
2022-11-13T01:53:46.501Z,2.20
2022-11-13T01:56:15.711Z,2.10
2022-11-13T01:58:47.968Z,2.20
2022-11-13T02:01:15.998Z,2.30
2022-11-13T02:03:43.914Z,2.30
2022-11-13T02:06:11.948Z,2.30
2022-11-13T02:08:40.304Z,2.20
2022-11-13T02:11:09.733Z,2.00
2022-11-13T02:13:38.695Z,1.90
2022-11-13T02:16:10.254Z,1.80
2022-11-13T02:18:40.280Z,1.70
2022-11-13T02:21:27.186Z,1.60
2022-11-13T02:24:05.561Z,1.60
2022-11-13T02:26:35.963Z,1.60
2022-11-13T02:29:04.123Z,1.60
2022-11-13T02:31:32.023Z,1.60
2022-11-13T02:34:02.431Z,1.60
2022-11-13T02:36:31.479Z,1.60
2022-11-13T02:39:03.218Z,1.60
2022-11-13T02:41:31.108Z,1.60
2022-11-13T02:44:00.375Z,1.50
2022-11-13T02:46:28.346Z,1.50
2022-11-13T02:48:56.289Z,1.50
2022-11-13T02:51:24.238Z,1.50
2022-11-13T02:53:52.201Z,1.50
2022-11-13T02:56:20.214Z,1.50
2022-11-13T02:58:48.191Z,1.50
2022-11-13T03:01:17.744Z,1.40
2022-11-13T03:03:57.348Z,1.30
2022-11-13T03:06:25.990Z,1.40
2022-11-13T03:08:53.995Z,1.40
2022-11-13T03:11:21.975Z,1.40
2022-11-13T03:13:49.934Z,1.30
2022-11-13T03:16:19.346Z,1.30
2022-11-13T03:18:47.284Z,1.20
2022-11-13T03:21:16.925Z,1.20
2022-11-13T03:23:46.006Z,1.20
2022-11-13T03:26:15.613Z,1.10
2022-11-13T03:28:44.096Z,1.10
2022-11-13T03:31:12.193Z,1.10
2022-11-13T03:33:41.571Z,1.10
2022-11-13T03:36:09.967Z,1.20
2022-11-13T03:38:38.596Z,1.20
2022-11-13T03:41:06.955Z,1.20
2022-11-13T03:43:34.866Z,1.10
2022-11-13T03:46:02.893Z,1.20
2022-11-13T03:48:31.081Z,1.20
2022-11-13T03:51:00.791Z,1.10
2022-11-13T03:53:30.051Z,1.10
2022-11-13T03:55:58.003Z,1.00
2022-11-13T03:58:26.395Z,1.10
2022-11-13T04:00:55.788Z,1.00
2022-11-13T04:03:24.056Z,1.00
2022-11-13T04:05:52.446Z,1.00
2022-11-13T04:08:21.746Z,1.00
2022-11-13T04:10:49.714Z,0.90
2022-11-13T04:13:17.710Z,0.80
2022-11-13T04:15:45.630Z,0.80
2022-11-13T04:18:13.609Z,0.90
2022-11-13T04:20:41.621Z,1.00
2022-11-13T04:23:12.566Z,1.10
2022-11-13T04:25:41.931Z,1.10
2022-11-13T04:28:10.626Z,1.10
2022-11-13T04:30:38.867Z,1.20
2022-11-13T04:33:07.573Z,1.30
2022-11-13T04:35:35.781Z,1.30
2022-11-13T04:38:04.030Z,1.30
2022-11-13T04:40:32.285Z,1.20
2022-11-13T04:43:00.548Z,1.20
2022-11-13T04:45:28.719Z,1.10
2022-11-13T04:47:56.894Z,1.00
2022-11-13T04:50:25.124Z,0.90
2022-11-13T04:52:53.128Z,0.70
2022-11-13T04:55:22.256Z,0.70
2022-11-13T04:57:51.583Z,0.50
2022-11-13T05:00:21.333Z,0.40
2022-11-13T05:02:49.272Z,0.30
2022-11-13T05:05:17.481Z,0.30
2022-11-13T05:07:45.478Z,0.20
2022-11-13T05:10:13.896Z,0.20
2022-11-13T05:12:41.835Z,0.20
2022-11-13T05:15:10.140Z,0.30
2022-11-13T05:17:39.469Z,0.30
2022-11-13T05:20:08.700Z,0.30
2022-11-13T05:22:36.601Z,0.40
2022-11-13T05:25:04.931Z,0.50
2022-11-13T05:27:32.884Z,0.60
2022-11-13T05:30:01.025Z,0.60
2022-11-13T05:32:28.961Z,0.60
2022-11-13T05:34:58.252Z,0.50
2022-11-13T05:37:26.127Z,0.50
2022-11-13T05:39:54.028Z,0.40
2022-11-13T05:42:21.971Z,0.40
2022-11-13T05:44:49.936Z,0.30
2022-11-13T05:47:17.941Z,0.30
2022-11-13T05:49:45.861Z,0.30
2022-11-13T05:52:15.215Z,0.20
2022-11-13T05:54:43.177Z,0.10
2022-11-13T05:57:11.141Z,0.10
2022-11-13T05:59:39.085Z,0.00
2022-11-13T06:02:07.065Z,0.10
2022-11-13T06:04:35.199Z,0.10
2022-11-13T06:07:03.161Z,0.10
2022-11-13T06:09:32.423Z,0.00
2022-11-13T06:12:00.572Z,0.10
2022-11-13T06:14:28.514Z,0.10
2022-11-13T06:16:56.405Z,0.20
2022-11-13T06:19:24.561Z,0.30
2022-11-13T06:21:52.485Z,0.30
2022-11-13T06:24:20.516Z,0.30
2022-11-13T06:26:49.832Z,0.30
2022-11-13T06:29:17.793Z,0.40
2022-11-13T06:31:45.740Z,0.30
2022-11-13T06:34:13.686Z,0.20
2022-11-13T06:36:41.605Z,0.20
2022-11-13T06:39:10.829Z,0.20
2022-11-13T06:41:39.852Z,0.20
2022-11-13T06:44:09.319Z,0.20
2022-11-13T06:46:37.391Z,0.20
2022-11-13T06:49:05.326Z,0.30
2022-11-13T06:51:33.880Z,0.30
2022-11-13T06:54:01.843Z,0.30
2022-11-13T06:56:29.924Z,0.40
2022-11-13T06:58:57.965Z,0.40
2022-11-13T07:01:28.343Z,0.40
2022-11-13T07:03:56.407Z,0.40
2022-11-13T07:06:25.653Z,0.40
2022-11-13T07:08:54.102Z,0.40
2022-11-13T07:11:23.584Z,0.40
2022-11-13T07:13:52.053Z,0.50
2022-11-13T07:16:20.233Z,0.50
2022-11-13T07:18:53.492Z,0.50
2022-11-13T07:21:23.183Z,0.50
2022-11-13T07:23:51.624Z,0.60
2022-11-13T07:26:20.334Z,0.70
2022-11-13T07:28:49.223Z,0.70
2022-11-13T07:31:18.748Z,0.70
2022-11-13T07:33:50.080Z,0.70
2022-11-13T07:36:19.449Z,0.60
2022-11-13T07:38:47.404Z,0.70
2022-11-13T07:41:15.347Z,0.70
2022-11-13T07:43:43.295Z,0.70
2022-11-13T07:46:11.284Z,0.80
2022-11-13T07:48:39.310Z,0.90
2022-11-13T07:51:07.476Z,1.10
2022-11-13T07:53:38.940Z,1.20
2022-11-13T07:56:07.756Z,1.30
2022-11-13T07:58:35.713Z,1.40
2022-11-13T08:01:05.225Z,1.60
2022-11-13T08:03:33.657Z,1.70
2022-11-13T08:06:03.237Z,1.70
2022-11-13T08:08:31.444Z,1.80
2022-11-13T08:11:05.341Z,1.90
2022-11-13T08:13:34.179Z,2.00
2022-11-13T08:16:03.136Z,2.10
2022-11-13T08:18:32.086Z,2.10
2022-11-13T08:21:02.551Z,2.10
2022-11-13T08:23:30.741Z,2.20
2022-11-13T08:26:04.104Z,2.20
2022-11-13T08:28:32.134Z,2.20
2022-11-13T08:31:00.189Z,2.20
2022-11-13T08:33:28.188Z,2.30
2022-11-13T08:35:56.953Z,2.40
2022-11-13T08:38:25.764Z,2.50
2022-11-13T08:40:54.141Z,2.50
2022-11-13T08:43:23.540Z,2.60
2022-11-13T08:45:51.492Z,2.70
2022-11-13T08:48:19.853Z,2.80
2022-11-13T08:50:47.853Z,3.10
2022-11-13T08:53:17.875Z,3.30
2022-11-13T08:55:45.811Z,3.60
2022-11-13T08:58:13.915Z,3.60
2022-11-13T09:00:55.487Z,3.80
2022-11-13T09:03:23.558Z,3.80
2022-11-13T09:05:51.554Z,3.90
2022-11-13T09:08:19.550Z,3.90
2022-11-13T09:10:47.521Z,3.80
2022-11-13T09:13:23.637Z,3.90
2022-11-13T09:15:52.916Z,3.80
2022-11-13T09:18:20.880Z,3.60
2022-11-13T09:20:48.807Z,3.60
2022-11-13T09:23:16.864Z,3.70
2022-11-13T09:25:44.860Z,3.70
2022-11-13T09:28:12.966Z,3.90
2022-11-13T09:30:41.826Z,4.00
2022-11-13T09:33:19.309Z,4.00
2022-11-13T09:35:47.342Z,4.10
2022-11-13T09:38:16.447Z,4.10
2022-11-13T09:40:53.354Z,4.10
2022-11-13T09:43:31.777Z,4.10
2022-11-13T09:46:03.380Z,4.20
2022-11-13T09:48:37.234Z,4.40
2022-11-13T09:51:13.728Z,4.40
2022-11-13T09:53:42.547Z,4.40
2022-11-13T09:56:23.268Z,4.60
2022-11-13T09:59:00.678Z,4.60
2022-11-13T10:01:35.874Z,4.60
2022-11-13T10:04:14.082Z,4.70
2022-11-13T10:06:53.439Z,4.70
2022-11-13T10:09:30.360Z,4.60
2022-11-13T10:12:02.708Z,4.50
2022-11-13T10:14:35.801Z,4.60
2022-11-13T10:17:09.527Z,4.60
2022-11-13T10:19:55.222Z,4.60
2022-11-13T10:22:33.480Z,4.80
2022-11-13T10:25:13.671Z,4.90
2022-11-13T10:27:42.035Z,5.00
2022-11-13T10:30:16.872Z,5.10
2022-11-13T10:32:45.849Z,5.10
2022-11-13T10:35:45.555Z,5.10
2022-11-13T10:38:21.915Z,5.00
2022-11-13T10:40:50.024Z,5.20
2022-11-13T10:43:20.835Z,5.10
2022-11-13T10:45:57.921Z,5.10
2022-11-13T10:48:28.806Z,5.10
2022-11-13T10:51:00.729Z,5.10
2022-11-13T10:53:38.537Z,5.10
2022-11-13T10:56:15.598Z,5.10
2022-11-13T10:58:43.623Z,5.10
2022-11-13T11:01:22.904Z,5.10
2022-11-13T11:03:51.723Z,5.10
2022-11-13T11:06:21.198Z,5.10
2022-11-13T11:08:49.144Z,5.00
2022-11-13T11:11:51.510Z,5.10
2022-11-13T11:14:25.423Z,5.20
2022-11-13T11:16:54.174Z,5.30
2022-11-13T11:19:27.538Z,5.30
2022-11-13T11:22:04.933Z,5.30
2022-11-13T11:24:36.954Z,5.30
2022-11-13T11:27:10.503Z,5.40
2022-11-13T11:29:43.965Z,5.40
2022-11-13T11:32:20.135Z,5.40
2022-11-13T11:34:58.961Z,5.50
2022-11-13T11:37:34.445Z,5.50
2022-11-13T11:40:07.960Z,5.60
2022-11-13T11:42:40.563Z,5.70
2022-11-13T11:45:16.717Z,5.80
2022-11-13T11:47:45.462Z,5.80
2022-11-13T11:50:15.652Z,5.90
2022-11-13T11:52:56.535Z,6.00
2022-11-13T11:55:43.062Z,6.10
2022-11-13T11:58:22.906Z,6.10
2022-11-13T12:00:54.398Z,6.10
2022-11-13T12:03:45.464Z,6.20
2022-11-13T12:06:24.865Z,6.30
2022-11-13T12:09:01.831Z,6.40
2022-11-13T12:11:32.930Z,6.40
2022-11-13T12:14:10.628Z,6.50
2022-11-13T12:16:46.765Z,6.50
2022-11-13T12:19:23.206Z,6.50
2022-11-13T12:22:00.687Z,6.70
2022-11-13T12:25:00.123Z,6.70
2022-11-13T12:27:35.839Z,6.80
2022-11-13T12:30:11.993Z,6.90
2022-11-13T12:33:15.355Z,7.10
2022-11-13T12:35:47.487Z,7.10
2022-11-13T12:38:23.519Z,7.20
2022-11-13T12:41:01.299Z,7.20
2022-11-13T12:43:54.691Z,7.20
2022-11-13T12:46:23.556Z,7.30
2022-11-13T12:48:51.495Z,7.30
2022-11-13T12:51:20.945Z,7.30
2022-11-13T12:53:51.111Z,7.40
2022-11-13T12:56:32.625Z,7.40
2022-11-13T12:59:29.352Z,7.40
2022-11-13T13:01:58.300Z,7.40
2022-11-13T13:04:49.607Z,7.40
2022-11-13T13:07:44.033Z,7.40
2022-11-13T13:10:18.420Z,7.40
2022-11-13T13:13:03.448Z,7.40
2022-11-13T13:15:35.403Z,7.60
2022-11-13T13:18:10.103Z,7.60
2022-11-13T13:20:40.083Z,7.60
2022-11-13T13:23:12.711Z,7.60
2022-11-13T13:25:42.262Z,7.60
2022-11-13T13:28:24.046Z,7.60
2022-11-13T13:31:01.365Z,7.60
2022-11-13T13:33:51.209Z,7.50
2022-11-13T13:36:29.483Z,7.50
2022-11-13T13:39:03.640Z,7.50
2022-11-13T13:41:46.112Z,7.50
2022-11-13T13:44:38.715Z,7.60
2022-11-13T13:47:15.743Z,7.60
2022-11-13T13:49:43.856Z,7.60
2022-11-13T13:52:15.033Z,7.60
2022-11-13T13:54:44.558Z,7.40
2022-11-13T13:57:15.759Z,7.40
2022-11-13T13:59:45.727Z,7.40
2022-11-13T14:02:17.982Z,7.30
2022-11-13T14:04:47.835Z,7.50
2022-11-13T14:07:25.617Z,7.60
2022-11-13T14:10:15.219Z,7.60
2022-11-13T14:12:44.666Z,7.30
2022-11-13T14:15:35.586Z,7.20
2022-11-13T14:18:08.591Z,7.00
2022-11-13T14:20:43.381Z,6.90
2022-11-13T14:23:15.996Z,6.80
2022-11-13T14:25:44.823Z,6.80
2022-11-13T14:28:17.169Z,6.70
2022-11-13T14:30:53.500Z,6.60
2022-11-13T14:33:24.922Z,6.60
2022-11-13T14:35:55.831Z,6.60
2022-11-13T14:38:29.104Z,6.60
2022-11-13T14:40:57.720Z,6.50
2022-11-13T14:43:28.938Z,6.30
2022-11-13T14:46:00.449Z,6.20
2022-11-13T14:48:30.476Z,6.00
2022-11-13T14:51:00.737Z,5.90
2022-11-13T14:53:32.895Z,5.80
2022-11-13T14:56:03.710Z,5.70
2022-11-13T14:58:33.644Z,5.50
2022-11-13T15:01:17.424Z,5.50
2022-11-13T15:03:49.671Z,5.40
2022-11-13T15:06:20.457Z,5.40
2022-11-13T15:08:56.674Z,5.30
2022-11-13T15:11:27.174Z,5.20
2022-11-13T15:14:04.178Z,5.20
2022-11-13T15:16:35.843Z,5.20
2022-11-13T15:19:07.292Z,5.20
2022-11-13T15:21:35.654Z,5.10
2022-11-13T15:24:03.954Z,5.00
2022-11-13T15:26:33.640Z,5.00
2022-11-13T15:29:02.340Z,5.00
2022-11-13T15:31:34.542Z,5.00
2022-11-13T15:34:02.727Z,4.90
2022-11-13T15:36:31.466Z,5.00
2022-11-13T15:39:06.174Z,5.10
2022-11-13T15:41:36.110Z,5.00
2022-11-13T15:44:08.282Z,5.00
2022-11-13T15:46:37.989Z,5.00
2022-11-13T15:49:06.012Z,5.00
2022-11-13T15:51:37.149Z,5.00
2022-11-13T15:54:14.409Z,4.90
2022-11-13T15:56:43.216Z,4.80
2022-11-13T15:59:13.462Z,4.70
2022-11-13T16:01:43.076Z,4.60
2022-11-13T16:04:13.236Z,4.50
2022-11-13T16:06:42.230Z,4.50
2022-11-13T16:09:14.789Z,4.50
2022-11-13T16:11:43.555Z,4.50
2022-11-13T16:14:11.590Z,4.40
2022-11-13T16:16:42.783Z,4.40
2022-11-13T16:19:14.395Z,4.30
2022-11-13T16:21:42.414Z,4.40
2022-11-13T16:24:11.744Z,4.70
2022-11-13T16:26:41.010Z,4.70
2022-11-13T16:29:19.149Z,4.70
2022-11-13T16:31:49.104Z,4.70
2022-11-13T16:34:17.183Z,5.00
2022-11-13T16:36:45.697Z,5.30
2022-11-13T16:39:17.227Z,5.40
2022-11-13T16:41:46.398Z,5.60
2022-11-13T16:44:14.553Z,5.50
2022-11-13T16:46:47.887Z,5.50
2022-11-13T16:49:19.380Z,5.80
2022-11-13T16:51:47.667Z,5.80
2022-11-13T16:54:16.205Z,5.80
2022-11-13T16:56:45.009Z,5.60
2022-11-13T16:59:13.451Z,5.40
2022-11-13T17:01:41.474Z,5.30
2022-11-13T17:04:14.056Z,5.20
2022-11-13T17:06:43.518Z,5.20
2022-11-13T17:09:12.954Z,5.20
2022-11-13T17:11:41.422Z,5.30
2022-11-13T17:14:11.526Z,5.40
2022-11-13T17:16:39.822Z,5.40
2022-11-13T17:19:07.888Z,5.40
2022-11-13T17:21:38.925Z,5.40
2022-11-13T17:24:12.409Z,5.40
2022-11-13T17:26:40.470Z,5.30
2022-11-13T17:29:08.498Z,5.30
2022-11-13T17:31:36.471Z,5.30
2022-11-13T17:34:05.636Z,5.20
2022-11-13T17:36:33.660Z,5.20
2022-11-13T17:39:01.832Z,5.20
2022-11-13T17:41:31.200Z,5.20
2022-11-13T17:44:01.508Z,5.30
2022-11-13T17:46:29.667Z,5.20
2022-11-13T17:48:57.811Z,5.30
2022-11-13T17:51:25.855Z,5.30
2022-11-13T17:53:53.875Z,5.40
2022-11-13T17:56:22.132Z,5.30
2022-11-13T17:58:51.695Z,5.30
2022-11-13T18:01:21.721Z,5.30
2022-11-13T18:03:55.722Z,5.30
2022-11-13T18:06:24.595Z,5.40
2022-11-13T18:08:52.659Z,5.40
2022-11-13T18:11:22.818Z,5.30
2022-11-13T18:13:52.862Z,5.20
2022-11-13T18:16:23.443Z,5.10
2022-11-13T18:18:55.151Z,5.30
2022-11-13T18:21:26.038Z,5.20
2022-11-13T18:23:58.619Z,5.00
2022-11-13T18:26:27.769Z,5.00
2022-11-13T18:28:57.350Z,4.80
2022-11-13T18:31:25.944Z,4.80
2022-11-13T18:33:54.202Z,4.80
2022-11-13T18:36:22.183Z,5.00
2022-11-13T18:38:50.276Z,5.20
2022-11-13T18:41:20.313Z,5.10
2022-11-13T18:43:50.997Z,4.90
2022-11-13T18:46:22.328Z,5.10
2022-11-13T18:48:51.207Z,5.10
2022-11-13T18:51:21.248Z,5.10
2022-11-13T18:53:51.043Z,5.10
2022-11-13T18:56:21.236Z,5.10
2022-11-13T18:58:50.653Z,5.20
2022-11-13T19:01:25.765Z,5.00
2022-11-13T19:04:21.790Z,5.00
2022-11-13T19:06:43.499Z,4.90
2022-11-13T19:09:13.478Z,5.00
2022-11-13T19:11:42.150Z,5.00
2022-11-13T19:14:15.202Z,5.00
2022-11-13T19:16:44.619Z,4.90
2022-11-13T19:19:22.467Z,4.80
2022-11-13T19:21:50.748Z,4.80
2022-11-13T19:24:19.006Z,4.90
2022-11-13T19:26:47.276Z,4.70
2022-11-13T19:29:15.290Z,4.80
2022-11-13T19:31:46.566Z,4.70
2022-11-13T19:34:15.127Z,4.50
2022-11-13T19:36:45.008Z,4.50
2022-11-13T19:39:13.155Z,4.50
2022-11-13T19:41:41.163Z,4.40
2022-11-13T19:44:10.588Z,4.40
2022-11-13T19:46:38.588Z,4.50
2022-11-13T19:49:08.120Z,4.50
2022-11-13T19:51:36.191Z,4.80
2022-11-13T19:54:04.712Z,4.60
2022-11-13T19:56:32.822Z,4.40
2022-11-13T19:59:00.863Z,4.20
2022-11-13T20:01:32.396Z,4.00
2022-11-13T20:04:02.882Z,3.80
2022-11-13T20:06:33.780Z,3.70
2022-11-13T20:09:03.470Z,3.70
2022-11-13T20:11:32.269Z,3.60
2022-11-13T20:14:00.459Z,3.50
2022-11-13T20:16:28.449Z,3.30
2022-11-13T20:18:58.362Z,3.30
2022-11-13T20:21:27.207Z,3.20
2022-11-13T20:23:59.078Z,3.20
2022-11-13T20:26:27.505Z,3.10
2022-11-13T20:28:55.706Z,3.00
2022-11-13T20:31:25.668Z,3.00
2022-11-13T20:33:56.619Z,3.00
2022-11-13T20:36:25.146Z,3.10
2022-11-13T20:38:54.695Z,3.40
2022-11-13T20:41:25.013Z,3.80
2022-11-13T20:43:55.734Z,4.10
2022-11-13T20:46:26.328Z,4.30
2022-11-13T20:48:57.266Z,4.40
2022-11-13T20:51:27.319Z,4.50
2022-11-13T20:53:55.901Z,4.60
2022-11-13T20:56:26.945Z,4.50
2022-11-13T20:58:55.122Z,4.40
2022-11-13T21:01:25.395Z,4.30
2022-11-13T21:03:54.012Z,4.20
2022-11-13T21:06:24.980Z,4.10
2022-11-13T21:08:53.485Z,4.00
2022-11-13T21:11:25.278Z,4.00
2022-11-13T21:13:57.453Z,3.90
2022-11-13T21:16:27.989Z,3.90
2022-11-13T21:18:56.952Z,3.90
2022-11-13T21:21:26.276Z,3.80
2022-11-13T21:23:57.158Z,3.70
2022-11-13T21:26:25.589Z,3.60
2022-11-13T21:28:56.774Z,3.60
2022-11-13T21:31:24.871Z,3.60
2022-11-13T21:33:53.867Z,3.60
2022-11-13T21:36:23.633Z,3.60
2022-11-13T21:38:52.895Z,3.60
2022-11-13T21:41:25.591Z,3.60
2022-11-13T21:43:58.037Z,3.60
2022-11-13T21:46:32.504Z,3.50
2022-11-13T21:49:02.410Z,3.40
2022-11-13T21:51:34.570Z,3.30
2022-11-13T21:54:02.765Z,3.20
2022-11-13T21:56:32.846Z,3.10
2022-11-13T21:59:00.822Z,3.20
2022-11-13T22:01:38.129Z,3.20
2022-11-13T22:04:06.887Z,3.20
2022-11-13T22:06:37.062Z,3.20
2022-11-13T22:09:07.893Z,3.10
2022-11-13T22:11:37.622Z,3.10
2022-11-13T22:14:06.505Z,2.90
2022-11-13T22:16:38.052Z,2.80
2022-11-13T22:19:08.105Z,2.80
2022-11-13T22:21:38.488Z,2.80
2022-11-13T22:24:07.051Z,2.80
2022-11-13T22:26:38.278Z,2.80
2022-11-13T22:29:06.893Z,2.60
2022-11-13T22:31:37.220Z,2.50
2022-11-13T22:34:05.213Z,2.50
2022-11-13T22:36:35.408Z,2.50
2022-11-13T22:39:04.131Z,2.40
2022-11-13T22:41:33.491Z,2.40
2022-11-13T22:44:03.401Z,2.50
2022-11-13T22:46:33.262Z,2.60
2022-11-13T22:49:04.728Z,2.70
2022-11-13T22:51:37.390Z,2.90
2022-11-13T22:54:07.114Z,3.20
2022-11-13T22:56:36.281Z,3.30
2022-11-13T22:59:07.878Z,3.30
2022-11-13T23:01:38.216Z,3.30
2022-11-13T23:04:09.149Z,3.30
2022-11-13T23:06:37.513Z,3.30
2022-11-13T23:09:06.573Z,3.30
2022-11-13T23:11:37.878Z,3.30
2022-11-13T23:14:08.090Z,3.30
2022-11-13T23:16:36.082Z,3.30
2022-11-13T23:19:05.113Z,3.30
2022-11-13T23:21:34.531Z,3.30
2022-11-13T23:24:02.540Z,3.30
2022-11-13T23:26:30.592Z,3.30
2022-11-13T23:28:58.794Z,3.30
2022-11-13T23:31:26.757Z,3.30
2022-11-13T23:33:54.858Z,3.30
2022-11-13T23:36:23.953Z,3.30
2022-11-13T23:38:53.432Z,3.30
2022-11-13T23:41:21.422Z,3.30
2022-11-13T23:46:37.313Z,3.50
2022-11-13T23:49:05.259Z,3.50
2022-11-13T23:51:33.190Z,3.60
2022-11-13T23:54:03.023Z,3.60
2022-11-13T23:56:31.029Z,3.60
2022-11-13T23:58:59.273Z,3.50
